Hazelton, Canada
Current Conditions -  °F | °C
As of 6:00 PM on Tuesday 25 Nov 2014 (Local Time) from CYYD Reporting Station
Broken Clouds Broken Clouds  
Wind Chill: 25°   Ceiling: 14000
Heat Index: 25°   Visibility: 15mi
Dew Point: 25°   Wind: 0mph
Humidity: 100%   Direction: NA
Pressure: 30.18"   Gusts: NA
Location:  55.25°N, 127.67°W
Report Text: CYYD 260200Z 00000KT 15SM FEW005 BKN140 M04/M04 A3018 RMK SF1AC6 SLP246
Loading
Personal Weather Stations






























Interactive Weather Map New forecast layout! Learn more

10-Day Weather Forecast

Advertisements
Track Severe Weather on mobile